sensor_id;sensor_type;location;lat;lon;timestamp;temperature;humidity
11894;DHT22;6006;49.696;8.662;2022-12-11T00:02:12;-3.70;99.90
11894;DHT22;6006;49.696;8.662;2022-12-11T00:04:40;-3.60;99.90
11894;DHT22;6006;49.696;8.662;2022-12-11T00:07:07;-3.60;99.90
11894;DHT22;6006;49.696;8.662;2022-12-11T00:09:36;-3.50;99.90
11894;DHT22;6006;49.696;8.662;2022-12-11T00:12:03;-3.50;99.90
11894;DHT22;6006;49.696;8.662;2022-12-11T00:14:33;-3.50;99.90
11894;DHT22;6006;49.696;8.662;2022-12-11T00:17:00;-3.40;99.90
11894;DHT22;6006;49.696;8.662;2022-12-11T00:19:27;-3.40;99.90
11894;DHT22;6006;49.696;8.662;2022-12-11T00:21:54;-3.40;99.90
11894;DHT22;6006;49.696;8.662;2022-12-11T00:24:22;-3.40;99.90
11894;DHT22;6006;49.696;8.662;2022-12-11T00:26:50;-3.40;99.90
11894;DHT22;6006;49.696;8.662;2022-12-11T00:29:17;-3.30;99.90
11894;DHT22;6006;49.696;8.662;2022-12-11T00:31:44;-3.20;99.90
11894;DHT22;6006;49.696;8.662;2022-12-11T00:34:11;-3.20;99.90
11894;DHT22;6006;49.696;8.662;2022-12-11T00:36:38;-3.20;99.90
11894;DHT22;6006;49.696;8.662;2022-12-11T00:39:05;-3.10;99.90
11894;DHT22;6006;49.696;8.662;2022-12-11T00:41:32;-3.10;99.90
11894;DHT22;6006;49.696;8.662;2022-12-11T00:44:01;-3.10;99.90
11894;DHT22;6006;49.696;8.662;2022-12-11T00:46:29;-3.00;99.90
11894;DHT22;6006;49.696;8.662;2022-12-11T00:48:56;-3.00;99.90
11894;DHT22;6006;49.696;8.662;2022-12-11T00:51:23;-3.00;99.90
11894;DHT22;6006;49.696;8.662;2022-12-11T00:53:50;-3.00;99.90
11894;DHT22;6006;49.696;8.662;2022-12-11T00:56:20;-2.90;99.90
11894;DHT22;6006;49.696;8.662;2022-12-11T00:58:48;-2.90;99.90
11894;DHT22;6006;49.696;8.662;2022-12-11T01:01:19;-2.90;99.90
11894;DHT22;6006;49.696;8.662;2022-12-11T01:03:48;-2.80;99.90
11894;DHT22;6006;49.696;8.662;2022-12-11T01:06:16;-2.80;99.90
11894;DHT22;6006;49.696;8.662;2022-12-11T01:08:45;-2.80;99.90
11894;DHT22;6006;49.696;8.662;2022-12-11T01:11:14;-2.80;99.90
11894;DHT22;6006;49.696;8.662;2022-12-11T01:13:42;-2.70;99.90
11894;DHT22;6006;49.696;8.662;2022-12-11T01:16:11;-2.70;99.90
11894;DHT22;6006;49.696;8.662;2022-12-11T01:18:40;-2.70;99.90
11894;DHT22;6006;49.696;8.662;2022-12-11T01:21:11;-2.60;99.90
11894;DHT22;6006;49.696;8.662;2022-12-11T01:23:39;-2.60;99.90
11894;DHT22;6006;49.696;8.662;2022-12-11T01:26:07;-2.60;99.90
11894;DHT22;6006;49.696;8.662;2022-12-11T01:28:34;-2.80;99.90
11894;DHT22;6006;49.696;8.662;2022-12-11T01:31:06;-2.60;99.90
11894;DHT22;6006;49.696;8.662;2022-12-11T01:33:35;-2.60;99.90
11894;DHT22;6006;49.696;8.662;2022-12-11T01:36:07;-2.60;99.90
11894;DHT22;6006;49.696;8.662;2022-12-11T01:38:35;-2.60;99.90
11894;DHT22;6006;49.696;8.662;2022-12-11T01:41:02;-2.60;99.90
11894;DHT22;6006;49.696;8.662;2022-12-11T01:43:30;-2.60;99.90
11894;DHT22;6006;49.696;8.662;2022-12-11T01:45:57;-2.60;99.90
11894;DHT22;6006;49.696;8.662;2022-12-11T01:48:26;-2.60;99.90
11894;DHT22;6006;49.696;8.662;2022-12-11T01:50:55;-2.50;99.90
11894;DHT22;6006;49.696;8.662;2022-12-11T01:53:28;-2.50;99.90
11894;DHT22;6006;49.696;8.662;2022-12-11T01:55:58;-2.40;99.90
11894;DHT22;6006;49.696;8.662;2022-12-11T01:58:28;-2.50;99.90
11894;DHT22;6006;49.696;8.662;2022-12-11T02:00:57;-2.50;99.90
11894;DHT22;6006;49.696;8.662;2022-12-11T02:03:24;-2.50;99.90
11894;DHT22;6006;49.696;8.662;2022-12-11T02:05:51;-2.50;99.90
11894;DHT22;6006;49.696;8.662;2022-12-11T02:08:18;-2.50;99.90
11894;DHT22;6006;49.696;8.662;2022-12-11T02:11:01;-2.50;99.90
11894;DHT22;6006;49.696;8.662;2022-12-11T02:13:36;-2.50;99.90
11894;DHT22;6006;49.696;8.662;2022-12-11T02:16:08;-2.40;99.90
11894;DHT22;6006;49.696;8.662;2022-12-11T02:18:43;-2.40;99.90
11894;DHT22;6006;49.696;8.662;2022-12-11T02:21:19;-2.40;99.90
11894;DHT22;6006;49.696;8.662;2022-12-11T02:27:07;-2.40;99.90
11894;DHT22;6006;49.696;8.662;2022-12-11T02:29:43;-2.40;99.90
11894;DHT22;6006;49.696;8.662;2022-12-11T02:32:15;-2.40;99.90
11894;DHT22;6006;49.696;8.662;2022-12-11T02:34:45;-2.30;99.90
11894;DHT22;6006;49.696;8.662;2022-12-11T02:37:18;-2.40;99.90
11894;DHT22;6006;49.696;8.662;2022-12-11T02:39:49;-2.40;99.90
11894;DHT22;6006;49.696;8.662;2022-12-11T02:42:19;-2.30;99.90
11894;DHT22;6006;49.696;8.662;2022-12-11T02:44:49;-2.30;99.90
11894;DHT22;6006;49.696;8.662;2022-12-11T02:47:17;-2.40;99.90
11894;DHT22;6006;49.696;8.662;2022-12-11T02:49:48;-2.40;99.90
11894;DHT22;6006;49.696;8.662;2022-12-11T02:52:18;-2.40;99.90
11894;DHT22;6006;49.696;8.662;2022-12-11T02:54:48;-2.40;99.90
11894;DHT22;6006;49.696;8.662;2022-12-11T02:57:22;-2.40;99.90
11894;DHT22;6006;49.696;8.662;2022-12-11T02:59:51;-2.30;99.90
11894;DHT22;6006;49.696;8.662;2022-12-11T03:02:19;-2.30;99.90
11894;DHT22;6006;49.696;8.662;2022-12-11T03:04:47;-2.30;99.90
11894;DHT22;6006;49.696;8.662;2022-12-11T03:07:16;-2.30;99.90
11894;DHT22;6006;49.696;8.662;2022-12-11T03:09:46;-2.20;99.90
11894;DHT22;6006;49.696;8.662;2022-12-11T03:12:16;-2.20;99.90
11894;DHT22;6006;49.696;8.662;2022-12-11T03:14:45;-2.10;99.90
11894;DHT22;6006;49.696;8.662;2022-12-11T03:17:17;-2.10;99.90
11894;DHT22;6006;49.696;8.662;2022-12-11T03:19:49;-2.10;99.90
11894;DHT22;6006;49.696;8.662;2022-12-11T03:22:23;-2.10;99.90
11894;DHT22;6006;49.696;8.662;2022-12-11T03:24:59;-2.00;99.90
11894;DHT22;6006;49.696;8.662;2022-12-11T03:27:32;-2.00;99.90
11894;DHT22;6006;49.696;8.662;2022-12-11T03:30:04;-2.00;99.90
11894;DHT22;6006;49.696;8.662;2022-12-11T03:32:37;-2.00;99.90
11894;DHT22;6006;49.696;8.662;2022-12-11T03:35:10;-2.00;99.90
11894;DHT22;6006;49.696;8.662;2022-12-11T03:37:40;-2.00;99.90
11894;DHT22;6006;49.696;8.662;2022-12-11T03:40:12;-2.00;99.90
11894;DHT22;6006;49.696;8.662;2022-12-11T03:42:43;-2.00;99.90
11894;DHT22;6006;49.696;8.662;2022-12-11T03:45:13;-1.90;99.90
11894;DHT22;6006;49.696;8.662;2022-12-11T03:47:42;-1.90;99.90
11894;DHT22;6006;49.696;8.662;2022-12-11T03:50:12;-1.90;99.90
11894;DHT22;6006;49.696;8.662;2022-12-11T03:52:42;-1.70;99.90
11894;DHT22;6006;49.696;8.662;2022-12-11T03:55:12;-1.70;99.90
11894;DHT22;6006;49.696;8.662;2022-12-11T03:57:39;-1.80;99.90
11894;DHT22;6006;49.696;8.662;2022-12-11T04:00:10;-1.80;99.90
11894;DHT22;6006;49.696;8.662;2022-12-11T04:02:37;-1.80;99.90
11894;DHT22;6006;49.696;8.662;2022-12-11T04:05:07;-1.80;99.90
11894;DHT22;6006;49.696;8.662;2022-12-11T04:07:34;-1.80;99.90
11894;DHT22;6006;49.696;8.662;2022-12-11T04:10:02;-1.70;99.90
11894;DHT22;6006;49.696;8.662;2022-12-11T04:12:29;-1.70;99.90
11894;DHT22;6006;49.696;8.662;2022-12-11T04:14:56;-1.70;99.90
11894;DHT22;6006;49.696;8.662;2022-12-11T04:17:28;-1.70;99.90
11894;DHT22;6006;49.696;8.662;2022-12-11T04:20:14;-1.60;99.90
11894;DHT22;6006;49.696;8.662;2022-12-11T04:22:59;-1.60;99.90
11894;DHT22;6006;49.696;8.662;2022-12-11T04:25:43;-1.60;99.90
11894;DHT22;6006;49.696;8.662;2022-12-11T04:28:10;-1.60;99.90
11894;DHT22;6006;49.696;8.662;2022-12-11T04:30:37;-1.60;99.90
11894;DHT22;6006;49.696;8.662;2022-12-11T04:33:04;-1.60;99.90
11894;DHT22;6006;49.696;8.662;2022-12-11T04:35:32;-1.60;99.90
11894;DHT22;6006;49.696;8.662;2022-12-11T04:37:59;-1.60;99.90
11894;DHT22;6006;49.696;8.662;2022-12-11T04:40:26;-1.60;99.90
11894;DHT22;6006;49.696;8.662;2022-12-11T04:42:53;-1.50;99.90
11894;DHT22;6006;49.696;8.662;2022-12-11T04:45:20;-1.50;99.90
11894;DHT22;6006;49.696;8.662;2022-12-11T04:47:48;-1.50;99.90
11894;DHT22;6006;49.696;8.662;2022-12-11T04:50:15;-1.50;99.90
11894;DHT22;6006;49.696;8.662;2022-12-11T04:52:43;-1.50;99.90
11894;DHT22;6006;49.696;8.662;2022-12-11T04:55:11;-1.50;99.90
11894;DHT22;6006;49.696;8.662;2022-12-11T04:57:38;-1.50;99.90
11894;DHT22;6006;49.696;8.662;2022-12-11T05:00:07;-1.50;99.90
11894;DHT22;6006;49.696;8.662;2022-12-11T05:02:35;-1.50;99.90
11894;DHT22;6006;49.696;8.662;2022-12-11T05:05:04;-1.50;99.90
11894;DHT22;6006;49.696;8.662;2022-12-11T05:07:31;-1.50;99.90
11894;DHT22;6006;49.696;8.662;2022-12-11T05:10:00;-1.50;99.90
11894;DHT22;6006;49.696;8.662;2022-12-11T05:12:27;-1.50;99.90
11894;DHT22;6006;49.696;8.662;2022-12-11T05:14:54;-1.40;99.90
11894;DHT22;6006;49.696;8.662;2022-12-11T05:17:21;-1.40;99.90
11894;DHT22;6006;49.696;8.662;2022-12-11T05:19:48;-1.40;99.90
11894;DHT22;6006;49.696;8.662;2022-12-11T05:22:16;-1.40;99.90
11894;DHT22;6006;49.696;8.662;2022-12-11T05:24:49;-1.40;99.90
11894;DHT22;6006;49.696;8.662;2022-12-11T05:27:24;-1.40;99.90
11894;DHT22;6006;49.696;8.662;2022-12-11T05:29:51;-1.40;99.90
11894;DHT22;6006;49.696;8.662;2022-12-11T05:32:17;-1.40;99.90
11894;DHT22;6006;49.696;8.662;2022-12-11T05:34:45;-1.40;99.90
11894;DHT22;6006;49.696;8.662;2022-12-11T05:37:13;-1.40;99.90
11894;DHT22;6006;49.696;8.662;2022-12-11T05:39:40;-1.40;99.90
11894;DHT22;6006;49.696;8.662;2022-12-11T05:42:07;-1.40;99.90
11894;DHT22;6006;49.696;8.662;2022-12-11T05:44:35;-1.40;99.90
11894;DHT22;6006;49.696;8.662;2022-12-11T05:47:02;-1.40;99.90
11894;DHT22;6006;49.696;8.662;2022-12-11T05:49:29;-1.40;99.90
11894;DHT22;6006;49.696;8.662;2022-12-11T05:51:56;-1.40;99.90
11894;DHT22;6006;49.696;8.662;2022-12-11T05:54:29;-1.40;99.90
11894;DHT22;6006;49.696;8.662;2022-12-11T05:56:56;-1.40;99.90
11894;DHT22;6006;49.696;8.662;2022-12-11T05:59:29;-1.40;99.90
11894;DHT22;6006;49.696;8.662;2022-12-11T06:01:57;-1.50;99.90
11894;DHT22;6006;49.696;8.662;2022-12-11T06:04:24;-1.50;99.90
11894;DHT22;6006;49.696;8.662;2022-12-11T06:06:53;-1.70;99.90
11894;DHT22;6006;49.696;8.662;2022-12-11T06:09:20;-1.80;99.90
11894;DHT22;6006;49.696;8.662;2022-12-11T06:11:46;-1.90;99.90
11894;DHT22;6006;49.696;8.662;2022-12-11T06:14:15;-1.90;99.90
11894;DHT22;6006;49.696;8.662;2022-12-11T06:16:43;-1.90;99.90
11894;DHT22;6006;49.696;8.662;2022-12-11T06:19:14;-1.90;99.90
11894;DHT22;6006;49.696;8.662;2022-12-11T06:21:43;-1.90;99.90
11894;DHT22;6006;49.696;8.662;2022-12-11T06:24:10;-1.90;99.90
11894;DHT22;6006;49.696;8.662;2022-12-11T06:26:39;-1.90;99.90
11894;DHT22;6006;49.696;8.662;2022-12-11T06:29:05;-1.80;99.90
11894;DHT22;6006;49.696;8.662;2022-12-11T06:31:32;-1.70;99.90
11894;DHT22;6006;49.696;8.662;2022-12-11T06:34:05;-1.80;99.90
11894;DHT22;6006;49.696;8.662;2022-12-11T06:36:36;-1.90;99.90
11894;DHT22;6006;49.696;8.662;2022-12-11T06:39:03;-1.90;99.90
11894;DHT22;6006;49.696;8.662;2022-12-11T06:41:30;-2.00;99.90
11894;DHT22;6006;49.696;8.662;2022-12-11T06:43:57;-1.90;99.90
11894;DHT22;6006;49.696;8.662;2022-12-11T06:46:25;-1.90;99.90
11894;DHT22;6006;49.696;8.662;2022-12-11T06:48:52;-1.90;99.90
11894;DHT22;6006;49.696;8.662;2022-12-11T06:51:21;-1.80;99.90
11894;DHT22;6006;49.696;8.662;2022-12-11T06:53:52;-1.80;99.90
11894;DHT22;6006;49.696;8.662;2022-12-11T06:56:19;-1.00;99.90
11894;DHT22;6006;49.696;8.662;2022-12-11T06:58:47;-1.70;99.90
11894;DHT22;6006;49.696;8.662;2022-12-11T07:01:16;-1.60;99.90
11894;DHT22;6006;49.696;8.662;2022-12-11T07:03:44;-1.60;99.90
11894;DHT22;6006;49.696;8.662;2022-12-11T07:06:12;-1.60;99.90
11894;DHT22;6006;49.696;8.662;2022-12-11T07:08:40;-1.50;99.90
11894;DHT22;6006;49.696;8.662;2022-12-11T07:11:10;-1.50;99.90
11894;DHT22;6006;49.696;8.662;2022-12-11T07:13:37;-1.40;99.90
11894;DHT22;6006;49.696;8.662;2022-12-11T07:16:05;-1.40;99.90
11894;DHT22;6006;49.696;8.662;2022-12-11T07:18:37;-1.40;99.90
11894;DHT22;6006;49.696;8.662;2022-12-11T07:21:04;-1.50;99.90
11894;DHT22;6006;49.696;8.662;2022-12-11T07:23:32;-1.50;99.90
11894;DHT22;6006;49.696;8.662;2022-12-11T07:26:03;-1.40;99.90
11894;DHT22;6006;49.696;8.662;2022-12-11T07:28:32;-1.40;99.90
11894;DHT22;6006;49.696;8.662;2022-12-11T07:31:03;-1.40;99.90
11894;DHT22;6006;49.696;8.662;2022-12-11T07:33:32;-1.40;99.90
11894;DHT22;6006;49.696;8.662;2022-12-11T07:36:01;-1.40;99.90
11894;DHT22;6006;49.696;8.662;2022-12-11T07:38:28;-1.20;99.90
11894;DHT22;6006;49.696;8.662;2022-12-11T07:40:58;-0.60;99.90
11894;DHT22;6006;49.696;8.662;2022-12-11T07:43:26;-0.40;99.90
11894;DHT22;6006;49.696;8.662;2022-12-11T07:45:59;-0.20;99.90
11894;DHT22;6006;49.696;8.662;2022-12-11T07:48:27;-0.40;99.90
11894;DHT22;6006;49.696;8.662;2022-12-11T07:50:54;-0.50;99.90
11894;DHT22;6006;49.696;8.662;2022-12-11T07:53:21;-0.60;99.90
11894;DHT22;6006;49.696;8.662;2022-12-11T07:55:48;-0.70;99.90
11894;DHT22;6006;49.696;8.662;2022-12-11T07:58:15;-0.80;99.90
11894;DHT22;6006;49.696;8.662;2022-12-11T08:00:43;-0.90;99.90
11894;DHT22;6006;49.696;8.662;2022-12-11T08:03:12;-0.80;99.90
11894;DHT22;6006;49.696;8.662;2022-12-11T08:05:39;-0.90;99.90
11894;DHT22;6006;49.696;8.662;2022-12-11T08:08:06;-0.90;99.90
11894;DHT22;6006;49.696;8.662;2022-12-11T08:10:35;-0.90;99.90
11894;DHT22;6006;49.696;8.662;2022-12-11T08:13:02;-0.90;99.90
11894;DHT22;6006;49.696;8.662;2022-12-11T08:15:29;-0.90;99.90
11894;DHT22;6006;49.696;8.662;2022-12-11T08:17:56;-0.90;99.90
11894;DHT22;6006;49.696;8.662;2022-12-11T08:20:25;-0.90;99.90
11894;DHT22;6006;49.696;8.662;2022-12-11T08:22:52;-0.90;99.90
11894;DHT22;6006;49.696;8.662;2022-12-11T08:25:19;-0.80;99.90
11894;DHT22;6006;49.696;8.662;2022-12-11T08:27:46;-0.80;99.90
11894;DHT22;6006;49.696;8.662;2022-12-11T08:30:13;-0.80;99.90
11894;DHT22;6006;49.696;8.662;2022-12-11T08:32:41;-0.80;99.90
11894;DHT22;6006;49.696;8.662;2022-12-11T08:35:08;-0.80;99.90
11894;DHT22;6006;49.696;8.662;2022-12-11T08:37:36;-0.90;99.90
11894;DHT22;6006;49.696;8.662;2022-12-11T08:40:06;-0.90;99.90
11894;DHT22;6006;49.696;8.662;2022-12-11T08:42:36;-0.90;99.90
11894;DHT22;6006;49.696;8.662;2022-12-11T08:45:04;-0.80;99.90
11894;DHT22;6006;49.696;8.662;2022-12-11T08:47:31;-0.70;99.90
11894;DHT22;6006;49.696;8.662;2022-12-11T08:49:59;-0.70;99.90
11894;DHT22;6006;49.696;8.662;2022-12-11T08:52:26;-0.70;99.90
11894;DHT22;6006;49.696;8.662;2022-12-11T08:54:57;-0.80;99.90
11894;DHT22;6006;49.696;8.662;2022-12-11T08:57:24;-0.80;99.90
11894;DHT22;6006;49.696;8.662;2022-12-11T08:59:51;-0.70;99.90
11894;DHT22;6006;49.696;8.662;2022-12-11T09:02:18;-0.70;99.90
11894;DHT22;6006;49.696;8.662;2022-12-11T09:04:45;-0.70;99.90
11894;DHT22;6006;49.696;8.662;2022-12-11T09:07:12;-0.80;99.90
11894;DHT22;6006;49.696;8.662;2022-12-11T09:09:39;-0.80;99.90
11894;DHT22;6006;49.696;8.662;2022-12-11T09:12:07;-0.70;99.90
11894;DHT22;6006;49.696;8.662;2022-12-11T09:14:34;-0.70;99.90
11894;DHT22;6006;49.696;8.662;2022-12-11T09:17:03;-0.70;99.90
11894;DHT22;6006;49.696;8.662;2022-12-11T09:19:30;-0.70;99.90
11894;DHT22;6006;49.696;8.662;2022-12-11T09:22:03;-0.60;99.90
11894;DHT22;6006;49.696;8.662;2022-12-11T09:24:36;-0.70;99.90
11894;DHT22;6006;49.696;8.662;2022-12-11T09:27:03;-0.90;99.90
11894;DHT22;6006;49.696;8.662;2022-12-11T09:29:32;-1.00;99.90
11894;DHT22;6006;49.696;8.662;2022-12-11T09:31:58;-1.00;99.90
11894;DHT22;6006;49.696;8.662;2022-12-11T09:34:25;-0.90;99.90
11894;DHT22;6006;49.696;8.662;2022-12-11T09:36:52;-0.80;99.90
11894;DHT22;6006;49.696;8.662;2022-12-11T09:39:20;-0.90;99.90
11894;DHT22;6006;49.696;8.662;2022-12-11T09:41:54;-0.90;99.90
11894;DHT22;6006;49.696;8.662;2022-12-11T09:44:40;-0.90;99.90
11894;DHT22;6006;49.696;8.662;2022-12-11T09:47:16;-0.90;99.90
11894;DHT22;6006;49.696;8.662;2022-12-11T09:49:46;-0.90;99.90
11894;DHT22;6006;49.696;8.662;2022-12-11T09:52:19;-0.80;99.90
11894;DHT22;6006;49.696;8.662;2022-12-11T09:54:50;-0.90;99.90
11894;DHT22;6006;49.696;8.662;2022-12-11T09:57:27;-0.80;99.90
11894;DHT22;6006;49.696;8.662;2022-12-11T10:00:11;-0.70;99.90
11894;DHT22;6006;49.696;8.662;2022-12-11T10:02:48;-0.50;99.90
11894;DHT22;6006;49.696;8.662;2022-12-11T10:05:27;-0.40;99.90
11894;DHT22;6006;49.696;8.662;2022-12-11T10:08:04;-0.50;99.90
11894;DHT22;6006;49.696;8.662;2022-12-11T10:10:40;-0.50;99.90
11894;DHT22;6006;49.696;8.662;2022-12-11T10:13:15;-0.50;99.90
11894;DHT22;6006;49.696;8.662;2022-12-11T10:15:53;-0.30;99.90
11894;DHT22;6006;49.696;8.662;2022-12-11T10:18:24;0.00;99.90
11894;DHT22;6006;49.696;8.662;2022-12-11T10:20:53;0.10;99.90
11894;DHT22;6006;49.696;8.662;2022-12-11T10:23:26;0.10;99.90
11894;DHT22;6006;49.696;8.662;2022-12-11T10:26:01;0.40;99.90
11894;DHT22;6006;49.696;8.662;2022-12-11T10:28:29;0.50;99.90
11894;DHT22;6006;49.696;8.662;2022-12-11T10:31:08;0.60;99.90
11894;DHT22;6006;49.696;8.662;2022-12-11T10:33:42;0.90;99.90
11894;DHT22;6006;49.696;8.662;2022-12-11T10:36:14;1.00;99.90
11894;DHT22;6006;49.696;8.662;2022-12-11T10:38:45;1.10;99.90
11894;DHT22;6006;49.696;8.662;2022-12-11T10:41:17;0.90;26.90
11894;DHT22;6006;49.696;8.662;2022-12-11T10:43:47;0.90;90.90
11894;DHT22;6006;49.696;8.662;2022-12-11T10:46:18;1.00;46.00
11894;DHT22;6006;49.696;8.662;2022-12-11T10:48:46;1.00;1.00
11894;DHT22;6006;49.696;8.662;2022-12-11T10:51:14;1.20;41.20
11894;DHT22;6006;49.696;8.662;2022-12-11T10:53:41;1.50;72.60
11894;DHT22;6006;49.696;8.662;2022-12-11T10:56:10;1.60;1.00
11894;DHT22;6006;49.696;8.662;2022-12-11T10:58:48;1.80;1.00
11894;DHT22;6006;49.696;8.662;2022-12-11T11:01:20;1.80;1.00
11894;DHT22;6006;49.696;8.662;2022-12-11T11:03:57;1.60;1.00
11894;DHT22;6006;49.696;8.662;2022-12-11T11:06:26;1.50;1.00
11894;DHT22;6006;49.696;8.662;2022-12-11T11:08:54;1.40;1.00
11894;DHT22;6006;49.696;8.662;2022-12-11T11:11:27;1.10;1.00
11894;DHT22;6006;49.696;8.662;2022-12-11T11:14:12;0.90;89.10
11894;DHT22;6006;49.696;8.662;2022-12-11T11:16:42;1.00;1.00
11894;DHT22;6006;49.696;8.662;2022-12-11T11:19:17;0.70;67.10
11894;DHT22;6006;49.696;8.662;2022-12-11T11:21:48;0.40;99.90
11894;DHT22;6006;49.696;8.662;2022-12-11T11:24:27;0.30;99.90
11894;DHT22;6006;49.696;8.662;2022-12-11T11:26:55;0.30;99.90
11894;DHT22;6006;49.696;8.662;2022-12-11T11:29:28;0.20;99.90
11894;DHT22;6006;49.696;8.662;2022-12-11T11:32:01;0.30;99.90
11894;DHT22;6006;49.696;8.662;2022-12-11T11:34:38;0.30;99.90
11894;DHT22;6006;49.696;8.662;2022-12-11T11:37:21;0.40;99.90
11894;DHT22;6006;49.696;8.662;2022-12-11T11:39:53;0.30;99.90
11894;DHT22;6006;49.696;8.662;2022-12-11T11:42:24;0.20;99.90
11894;DHT22;6006;49.696;8.662;2022-12-11T11:45:01;0.00;99.90
11894;DHT22;6006;49.696;8.662;2022-12-11T11:47:35;0.10;99.90
11894;DHT22;6006;49.696;8.662;2022-12-11T11:50:10;0.10;99.90
11894;DHT22;6006;49.696;8.662;2022-12-11T11:52:42;0.10;99.90
11894;DHT22;6006;49.696;8.662;2022-12-11T11:55:15;0.10;99.90
11894;DHT22;6006;49.696;8.662;2022-12-11T11:57:48;0.30;99.90
11894;DHT22;6006;49.696;8.662;2022-12-11T12:00:21;0.20;99.90
11894;DHT22;6006;49.696;8.662;2022-12-11T12:02:56;0.40;99.90
11894;DHT22;6006;49.696;8.662;2022-12-11T12:05:27;0.40;99.90
11894;DHT22;6006;49.696;8.662;2022-12-11T12:08:05;0.50;99.90
11894;DHT22;6006;49.696;8.662;2022-12-11T12:10:42;0.50;99.90
11894;DHT22;6006;49.696;8.662;2022-12-11T12:13:19;0.30;99.90
11894;DHT22;6006;49.696;8.662;2022-12-11T12:15:55;0.40;99.90
11894;DHT22;6006;49.696;8.662;2022-12-11T12:18:33;0.30;99.90
11894;DHT22;6006;49.696;8.662;2022-12-11T12:21:08;0.30;99.90
11894;DHT22;6006;49.696;8.662;2022-12-11T12:23:53;0.40;99.90
11894;DHT22;6006;49.696;8.662;2022-12-11T12:26:26;0.40;99.90
11894;DHT22;6006;49.696;8.662;2022-12-11T12:29:02;0.20;99.90
11894;DHT22;6006;49.696;8.662;2022-12-11T12:31:44;0.30;99.90
11894;DHT22;6006;49.696;8.662;2022-12-11T12:34:23;0.30;99.90
11894;DHT22;6006;49.696;8.662;2022-12-11T12:36:58;0.30;99.90
11894;DHT22;6006;49.696;8.662;2022-12-11T12:39:37;0.40;99.90
11894;DHT22;6006;49.696;8.662;2022-12-11T12:42:15;0.30;99.90
11894;DHT22;6006;49.696;8.662;2022-12-11T12:44:52;0.20;99.90
11894;DHT22;6006;49.696;8.662;2022-12-11T12:47:25;0.10;99.90
11894;DHT22;6006;49.696;8.662;2022-12-11T12:49:54;0.10;99.90
11894;DHT22;6006;49.696;8.662;2022-12-11T12:52:28;0.00;99.90
11894;DHT22;6006;49.696;8.662;2022-12-11T12:55:00;0.00;99.90
11894;DHT22;6006;49.696;8.662;2022-12-11T12:57:43;-0.10;99.90
11894;DHT22;6006;49.696;8.662;2022-12-11T13:00:11;0.00;99.90
11894;DHT22;6006;49.696;8.662;2022-12-11T13:02:46;0.00;99.90
11894;DHT22;6006;49.696;8.662;2022-12-11T13:05:21;0.10;99.90
11894;DHT22;6006;49.696;8.662;2022-12-11T13:07:51;0.20;99.90
11894;DHT22;6006;49.696;8.662;2022-12-11T13:10:24;0.10;99.90
11894;DHT22;6006;49.696;8.662;2022-12-11T13:12:52;0.10;99.90
11894;DHT22;6006;49.696;8.662;2022-12-11T13:18:32;0.10;99.90
11894;DHT22;6006;49.696;8.662;2022-12-11T13:21:01;0.00;99.90
11894;DHT22;6006;49.696;8.662;2022-12-11T13:23:31;0.00;99.90
11894;DHT22;6006;49.696;8.662;2022-12-11T13:26:00;0.00;99.90
11894;DHT22;6006;49.696;8.662;2022-12-11T13:28:31;0.00;99.90
11894;DHT22;6006;49.696;8.662;2022-12-11T13:31:05;0.10;99.90
11894;DHT22;6006;49.696;8.662;2022-12-11T13:33:40;0.00;99.90
11894;DHT22;6006;49.696;8.662;2022-12-11T13:36:32;0.00;99.90
11894;DHT22;6006;49.696;8.662;2022-12-11T13:39:05;0.20;99.90
11894;DHT22;6006;49.696;8.662;2022-12-11T13:41:34;0.20;99.90
11894;DHT22;6006;49.696;8.662;2022-12-11T13:44:03;0.40;99.90
11894;DHT22;6006;49.696;8.662;2022-12-11T13:46:35;0.40;99.90
11894;DHT22;6006;49.696;8.662;2022-12-11T13:49:05;0.50;99.90
11894;DHT22;6006;49.696;8.662;2022-12-11T13:51:34;0.50;99.90
11894;DHT22;6006;49.696;8.662;2022-12-11T13:54:05;0.50;99.90
11894;DHT22;6006;49.696;8.662;2022-12-11T13:56:32;0.60;99.90
11894;DHT22;6006;49.696;8.662;2022-12-11T13:58:59;0.50;99.90
11894;DHT22;6006;49.696;8.662;2022-12-11T14:01:28;0.50;99.90
11894;DHT22;6006;49.696;8.662;2022-12-11T14:03:57;0.40;99.90
11894;DHT22;6006;49.696;8.662;2022-12-11T14:06:25;0.30;99.90
11894;DHT22;6006;49.696;8.662;2022-12-11T14:08:57;0.30;99.90
11894;DHT22;6006;49.696;8.662;2022-12-11T14:11:28;0.40;99.90
11894;DHT22;6006;49.696;8.662;2022-12-11T14:13:57;0.40;99.90
11894;DHT22;6006;49.696;8.662;2022-12-11T14:16:26;0.40;99.90
11894;DHT22;6006;49.696;8.662;2022-12-11T14:18:57;0.50;99.90
11894;DHT22;6006;49.696;8.662;2022-12-11T14:21:26;0.50;99.90
11894;DHT22;6006;49.696;8.662;2022-12-11T14:23:57;0.50;99.90
11894;DHT22;6006;49.696;8.662;2022-12-11T14:26:26;0.50;99.90
11894;DHT22;6006;49.696;8.662;2022-12-11T14:28:53;0.40;99.90
11894;DHT22;6006;49.696;8.662;2022-12-11T14:31:25;0.30;99.90
11894;DHT22;6006;49.696;8.662;2022-12-11T14:33:56;0.10;99.90
11894;DHT22;6006;49.696;8.662;2022-12-11T14:36:25;0.20;99.90
11894;DHT22;6006;49.696;8.662;2022-12-11T14:38:57;0.20;99.90
11894;DHT22;6006;49.696;8.662;2022-12-11T14:41:30;0.20;99.90
11894;DHT22;6006;49.696;8.662;2022-12-11T14:44:03;0.10;99.90
11894;DHT22;6006;49.696;8.662;2022-12-11T14:46:39;0.00;99.90
11894;DHT22;6006;49.696;8.662;2022-12-11T14:49:16;0.00;99.90
11894;DHT22;6006;49.696;8.662;2022-12-11T14:51:47;0.10;99.90
11894;DHT22;6006;49.696;8.662;2022-12-11T14:54:23;0.10;99.90
11894;DHT22;6006;49.696;8.662;2022-12-11T14:56:51;0.10;99.90
11894;DHT22;6006;49.696;8.662;2022-12-11T14:59:20;0.10;99.90
11894;DHT22;6006;49.696;8.662;2022-12-11T15:01:57;0.20;99.90
11894;DHT22;6006;49.696;8.662;2022-12-11T15:04:27;0.20;99.90
11894;DHT22;6006;49.696;8.662;2022-12-11T15:06:55;0.10;99.90
11894;DHT22;6006;49.696;8.662;2022-12-11T15:09:27;0.10;99.90
11894;DHT22;6006;49.696;8.662;2022-12-11T15:11:55;0.20;99.90
11894;DHT22;6006;49.696;8.662;2022-12-11T15:14:25;0.20;99.90
11894;DHT22;6006;49.696;8.662;2022-12-11T15:16:54;0.20;99.90
11894;DHT22;6006;49.696;8.662;2022-12-11T15:19:26;0.20;99.90
11894;DHT22;6006;49.696;8.662;2022-12-11T15:21:54;0.20;99.90
11894;DHT22;6006;49.696;8.662;2022-12-11T15:24:35;0.20;99.90
11894;DHT22;6006;49.696;8.662;2022-12-11T15:27:03;0.20;99.90
11894;DHT22;6006;49.696;8.662;2022-12-11T15:29:33;0.20;99.90
11894;DHT22;6006;49.696;8.662;2022-12-11T15:32:15;0.20;99.90
11894;DHT22;6006;49.696;8.662;2022-12-11T15:34:45;0.10;99.90
11894;DHT22;6006;49.696;8.662;2022-12-11T15:37:20;0.20;99.90
11894;DHT22;6006;49.696;8.662;2022-12-11T15:39:49;0.10;99.90
11894;DHT22;6006;49.696;8.662;2022-12-11T15:42:22;0.20;99.90
11894;DHT22;6006;49.696;8.662;2022-12-11T15:44:50;0.20;99.90
11894;DHT22;6006;49.696;8.662;2022-12-11T15:47:20;0.20;99.90
11894;DHT22;6006;49.696;8.662;2022-12-11T15:49:49;0.10;99.90
11894;DHT22;6006;49.696;8.662;2022-12-11T15:52:16;0.20;99.90
11894;DHT22;6006;49.696;8.662;2022-12-11T15:54:44;0.10;99.90
11894;DHT22;6006;49.696;8.662;2022-12-11T15:57:15;0.10;99.90
11894;DHT22;6006;49.696;8.662;2022-12-11T15:59:43;0.10;99.90
11894;DHT22;6006;49.696;8.662;2022-12-11T16:02:13;0.00;99.90
11894;DHT22;6006;49.696;8.662;2022-12-11T16:04:41;0.00;99.90
11894;DHT22;6006;49.696;8.662;2022-12-11T16:07:15;0.00;99.90
11894;DHT22;6006;49.696;8.662;2022-12-11T16:09:43;0.00;99.90
11894;DHT22;6006;49.696;8.662;2022-12-11T16:12:11;0.00;99.90
11894;DHT22;6006;49.696;8.662;2022-12-11T16:14:40;0.00;99.90
11894;DHT22;6006;49.696;8.662;2022-12-11T16:17:08;0.00;99.90
11894;DHT22;6006;49.696;8.662;2022-12-11T16:19:36;0.00;99.90